Time;durP1;ratioP1;P1;durP2;ratioP2;P2;SDS_P1;SDS_P2;PMS_P1;PMS_P2;Temp;Humidity;BMP_temperature;BMP_pressure;BME280_temperature;BME280_humidity;BME280_pressure;Samples;Min_cycle;Max_cycle;Signal;HPM_P1;HPM_P2
2022/05/11 00:01:25;;;;;;;8.48;5.97;;;14.60;99.90;;;;;;5038860;28;20125;-54
2022/05/11 00:03:54;;;;;;;7.82;5.88;;;14.60;99.90;;;;;;5039552;28;20193;-53
2022/05/11 00:06:20;;;;;;;7.70;4.82;;;14.60;99.90;;;;;;5039696;28;20061;-52
2022/05/11 00:08:45;;;;;;;9.90;5.40;;;14.60;99.90;;;;;;5033227;28;20060;-52
2022/05/11 00:11:11;;;;;;;8.85;5.32;;;14.60;99.90;;;;;;5033054;28;20036;-53
2022/05/11 00:13:37;;;;;;;7.03;5.05;;;14.60;99.90;;;;;;5015349;28;20021;-54
2022/05/11 00:16:02;;;;;;;10.05;5.57;;;14.60;99.90;;;;;;5033384;28;20037;-51
2022/05/11 00:18:28;;;;;;;9.60;5.57;;;14.60;99.90;;;;;;5015388;28;20087;-53
2022/05/11 00:20:54;;;;;;;9.18;5.60;;;14.60;99.90;;;;;;5034603;28;20491;-55
2022/05/11 00:23:19;;;;;;;7.07;4.70;;;14.60;99.90;;;;;;5035144;28;20037;-52
2022/05/11 00:25:45;;;;;;;8.35;5.00;;;14.60;99.90;;;;;;5035020;28;20084;-53
2022/05/11 00:28:12;;;;;;;10.10;4.72;;;14.60;99.90;;;;;;5035045;28;20045;-52
2022/05/11 00:30:38;;;;;;;9.50;6.05;;;14.60;99.90;;;;;;5034832;28;20104;-52
2022/05/11 00:33:03;;;;;;;9.73;5.25;;;14.60;99.90;;;;;;5034149;28;20049;-55
2022/05/11 00:35:33;;;;;;;7.07;5.00;;;14.60;99.90;;;;;;5035101;28;20490;-54
2022/05/11 00:37:59;;;;;;;11.02;5.97;;;14.60;99.90;;;;;;5035398;28;20025;-55
2022/05/11 00:40:25;;;;;;;10.27;5.47;;;14.60;99.90;;;;;;5034613;28;20048;-56
2022/05/11 00:42:52;;;;;;;10.13;5.07;;;14.60;99.90;;;;;;5034945;28;20057;-53
2022/05/11 00:45:17;;;;;;;7.95;4.47;;;14.60;99.90;;;;;;5035036;28;20063;-55
2022/05/11 00:47:48;;;;;;;10.70;5.18;;;14.60;99.90;;;;;;5034548;28;20420;-54
2022/05/11 00:50:18;;;;;;;9.77;4.90;;;14.60;99.90;;;;;;5034528;28;20029;-55
2022/05/11 00:52:50;;;;;;;8.75;4.85;;;14.60;99.90;;;;;;5035222;28;20033;-55
2022/05/11 00:55:42;;;;;;;6.82;5.22;;;14.50;99.90;;;;;;5034821;28;20091;-53
2022/05/11 00:58:19;;;;;;;10.27;4.75;;;14.60;99.90;;;;;;5034584;28;20421;-53
2022/05/11 01:00:46;;;;;;;6.95;4.70;;;14.60;99.90;;;;;;5034662;28;20057;-50
2022/05/11 01:03:15;;;;;;;6.05;4.25;;;14.60;99.90;;;;;;5034235;28;20112;-53
2022/05/11 01:05:42;;;;;;;11.88;4.32;;;14.60;99.90;;;;;;5034125;28;20034;-56
2022/05/11 01:08:08;;;;;;;8.80;4.57;;;14.60;99.90;;;;;;5016647;28;20026;-52
2022/05/11 01:10:34;;;;;;;7.35;4.57;;;14.60;99.90;;;;;;5016328;28;20176;-51
2022/05/11 01:13:04;;;;;;;6.82;4.32;;;14.60;99.90;;;;;;5034435;28;20104;-54
2022/05/11 01:15:33;;;;;;;8.85;4.68;;;14.60;99.90;;;;;;5034271;28;20548;-52
2022/05/11 01:18:01;;;;;;;8.02;5.05;;;14.60;99.90;;;;;;5016022;28;20045;-55
2022/05/11 01:20:29;;;;;;;8.10;5.05;;;14.60;99.90;;;;;;5034534;28;20479;-53
2022/05/11 01:23:26;;;;;;;7.18;4.85;;;14.60;99.90;;;;;;5015913;28;20487;-52
2022/05/11 01:25:53;;;;;;;7.72;5.22;;;14.60;99.90;;;;;;5034204;28;20045;-55
2022/05/11 01:28:19;;;;;;;6.03;4.80;;;14.60;99.90;;;;;;5034147;28;20101;-53
2022/05/11 01:30:59;;;;;;;8.63;4.55;;;14.60;99.90;;;;;;5033949;28;20053;-51
2022/05/11 01:33:25;;;;;;;8.73;4.83;;;14.60;99.90;;;;;;5034255;28;20389;-54
2022/05/11 01:36:03;;;;;;;7.03;4.88;;;14.60;99.90;;;;;;5034026;28;20026;-51
2022/05/11 01:38:40;;;;;;;6.18;4.80;;;14.60;99.90;;;;;;5034671;28;20421;-55
2022/05/11 01:41:07;;;;;;;7.68;4.95;;;14.60;99.90;;;;;;5033948;28;20471;-53
2022/05/11 01:43:36;;;;;;;9.45;5.20;;;14.60;99.90;;;;;;5033729;28;20071;-55
2022/05/11 01:46:02;;;;;;;5.95;4.70;;;14.60;99.90;;;;;;5033866;28;20029;-54
2022/05/11 01:48:28;;;;;;;7.72;5.57;;;14.60;99.90;;;;;;5033559;28;20487;-54
2022/05/11 01:50:54;;;;;;;9.48;5.15;;;14.60;99.90;;;;;;5015761;28;20079;-54
2022/05/11 01:53:20;;;;;;;9.10;5.57;;;14.60;99.90;;;;;;5033376;28;20040;-53
2022/05/11 01:55:46;;;;;;;8.10;5.20;;;14.60;99.90;;;;;;5033212;28;20021;-54
2022/05/11 01:58:12;;;;;;;9.27;5.35;;;14.60;99.90;;;;;;5033181;28;20096;-54
2022/05/11 02:00:40;;;;;;;7.47;5.10;;;14.60;99.90;;;;;;5033538;28;20048;-51
2022/05/11 02:03:06;;;;;;;11.02;5.18;;;14.60;99.90;;;;;;5033147;28;20025;-52
2022/05/11 02:08:17;;;;;;;8.15;5.65;;;14.60;99.90;;;;;;5033694;28;20036;-51
2022/05/11 02:10:43;;;;;;;7.72;5.35;;;14.60;99.90;;;;;;5033237;28;20029;-54
2022/05/11 02:13:09;;;;;;;8.77;5.30;;;14.60;99.90;;;;;;5033110;28;20125;-53
2022/05/11 02:15:36;;;;;;;11.90;5.68;;;14.50;99.90;;;;;;5033273;28;20052;-51
2022/05/11 02:18:02;;;;;;;11.35;6.03;;;14.50;99.90;;;;;;5032938;28;20510;-53
2022/05/11 02:20:28;;;;;;;12.20;6.15;;;14.50;99.90;;;;;;5032910;28;20041;-54
2022/05/11 02:22:54;;;;;;;7.78;5.35;;;14.50;99.90;;;;;;5033147;28;20136;-52
2022/05/11 02:25:20;;;;;;;8.95;5.82;;;14.50;99.90;;;;;;5033108;28;20475;-54
2022/05/11 02:27:48;;;;;;;12.43;6.10;;;14.50;99.90;;;;;;5033311;28;20441;-53
2022/05/11 02:30:20;;;;;;;8.57;5.93;;;14.40;99.90;;;;;;5032935;28;20108;-52
2022/05/11 02:32:46;;;;;;;7.03;5.47;;;14.40;99.90;;;;;;5033041;28;20482;-52
2022/05/11 02:35:15;;;;;;;11.05;6.45;;;14.40;99.90;;;;;;5032689;28;20021;-53
2022/05/11 02:37:51;;;;;;;8.32;5.82;;;14.40;99.90;;;;;;5032558;28;20029;-56
2022/05/11 02:40:22;;;;;;;10.90;5.97;;;14.40;99.90;;;;;;5032952;28;20059;-53
2022/05/11 02:42:48;;;;;;;9.80;5.93;;;14.40;99.90;;;;;;5033566;28;20410;-52
2022/05/11 02:45:15;;;;;;;11.93;6.93;;;14.40;99.90;;;;;;5032751;28;20025;-52
2022/05/11 02:47:41;;;;;;;10.38;6.78;;;14.40;99.90;;;;;;5032487;28;20379;-55
2022/05/11 02:50:08;;;;;;;12.50;6.55;;;14.40;99.90;;;;;;5033069;28;20036;-56
2022/05/11 02:52:34;;;;;;;8.75;6.15;;;14.40;99.90;;;;;;5033035;28;20052;-55
2022/05/11 02:55:00;;;;;;;8.98;6.07;;;14.40;99.90;;;;;;5032747;28;20029;-56
2022/05/11 02:57:26;;;;;;;10.23;6.28;;;14.40;99.90;;;;;;5035124;28;20022;-55
2022/05/11 02:59:52;;;;;;;11.20;7.50;;;14.40;99.90;;;;;;5036776;28;20022;-52
2022/05/11 03:02:20;;;;;;;12.27;7.70;;;14.50;99.90;;;;;;5038317;28;20037;-56
2022/05/11 03:04:46;;;;;;;9.88;6.68;;;14.50;99.90;;;;;;5036998;28;20494;-52
2022/05/11 03:07:12;;;;;;;12.80;7.72;;;14.50;99.90;;;;;;5036674;28;20107;-52
2022/05/11 03:09:37;;;;;;;11.15;6.82;;;14.40;99.90;;;;;;5036462;28;20025;-54
2022/05/11 03:12:03;;;;;;;14.02;7.03;;;14.40;99.90;;;;;;5036550;28;20057;-52
2022/05/11 03:14:29;;;;;;;12.95;7.93;;;14.40;99.90;;;;;;5036515;28;20022;-55
2022/05/11 03:16:54;;;;;;;12.15;8.35;;;14.50;99.90;;;;;;5036491;28;20516;-55
2022/05/11 03:19:20;;;;;;;13.15;8.30;;;14.40;99.90;;;;;;5036758;28;20052;-54
2022/05/11 03:21:47;;;;;;;16.25;8.70;;;14.40;99.90;;;;;;5036620;28;20091;-55
2022/05/11 03:24:13;;;;;;;16.40;8.60;;;14.40;99.90;;;;;;5036536;28;20029;-52
2022/05/11 03:26:38;;;;;;;13.45;8.63;;;14.50;99.90;;;;;;5036581;28;20039;-53
2022/05/11 03:29:05;;;;;;;17.38;9.90;;;14.40;99.90;;;;;;5036114;28;20540;-55
2022/05/11 03:31:35;;;;;;;13.93;9.68;;;14.40;99.90;;;;;;5036017;28;20029;-53
2022/05/11 03:36:45;;;;;;;12.88;9.57;;;14.40;99.90;;;;;;5036306;28;20417;-55
2022/05/11 03:39:10;;;;;;;13.05;9.48;;;14.40;99.90;;;;;;5036383;28;20054;-56
2022/05/11 03:41:36;;;;;;;17.35;10.43;;;14.40;99.90;;;;;;5035978;28;20071;-54
2022/05/11 03:44:02;;;;;;;15.73;10.18;;;14.40;99.90;;;;;;5035993;28;20057;-52
2022/05/11 03:46:28;;;;;;;15.05;11.13;;;14.40;99.90;;;;;;5036103;28;20080;-52
2022/05/11 03:48:53;;;;;;;15.60;9.57;;;14.40;99.90;;;;;;5035805;28;20033;-51
2022/05/11 03:51:19;;;;;;;21.20;11.52;;;14.50;99.90;;;;;;5035712;28;20032;-55
2022/05/11 03:53:44;;;;;;;16.58;11.68;;;14.50;99.90;;;;;;5035942;28;20091;-54
2022/05/11 03:56:10;;;;;;;15.70;11.18;;;14.50;99.90;;;;;;5017744;28;20183;-53
2022/05/11 03:58:36;;;;;;;19.60;11.40;;;14.50;99.90;;;;;;5035794;28;20029;-51
2022/05/11 04:01:01;;;;;;;20.60;11.57;;;14.50;99.90;;;;;;5035460;28;20038;-53
2022/05/11 04:03:27;;;;;;;20.88;11.90;;;14.50;99.90;;;;;;5035355;28;20087;-53
2022/05/11 04:05:53;;;;;;;20.23;13.50;;;14.60;99.90;;;;;;5035668;28;20494;-55
2022/05/11 04:08:18;;;;;;;17.35;12.57;;;14.60;99.90;;;;;;5034278;28;20457;-53
2022/05/11 04:10:44;;;;;;;18.27;12.25;;;14.60;99.90;;;;;;5035290;28;20021;-52
2022/05/11 04:13:10;;;;;;;18.48;13.02;;;14.50;99.90;;;;;;5035469;28;20025;-52
2022/05/11 04:15:36;;;;;;;19.88;12.85;;;14.60;99.90;;;;;;5035424;28;20057;-52
2022/05/11 04:18:01;;;;;;;18.48;13.52;;;14.60;99.90;;;;;;5035587;28;20518;-51
2022/05/11 04:20:27;;;;;;;19.65;13.43;;;14.60;99.90;;;;;;5043092;28;20025;-52
2022/05/11 04:22:54;;;;;;;25.02;13.98;;;14.60;99.90;;;;;;5026837;28;20545;-55
2022/05/11 04:25:20;;;;;;;20.92;13.68;;;14.50;99.90;;;;;;5015831;28;20034;-53
2022/05/11 04:27:48;;;;;;;19.40;14.10;;;14.50;99.90;;;;;;5015395;28;20391;-54
2022/05/11 04:30:15;;;;;;;19.80;13.93;;;14.60;99.90;;;;;;5015225;28;20032;-51
2022/05/11 04:32:41;;;;;;;23.13;14.50;;;14.50;99.90;;;;;;5015437;28;20109;-52
2022/05/11 04:35:08;;;;;;;21.40;13.98;;;14.60;99.90;;;;;;5015804;28;20502;-50
2022/05/11 04:37:33;;;;;;;22.05;13.88;;;14.50;99.90;;;;;;5015470;28;20175;-53
2022/05/11 04:39:59;;;;;;;20.42;14.05;;;14.50;99.90;;;;;;5015478;28;20394;-51
2022/05/11 04:42:25;;;;;;;24.85;13.68;;;14.60;99.90;;;;;;5015253;28;20029;-53
2022/05/11 04:44:53;;;;;;;20.40;13.30;;;14.60;99.90;;;;;;4997409;28;20026;-54
2022/05/11 04:47:19;;;;;;;18.92;13.40;;;14.60;99.90;;;;;;5014979;28;20108;-53
2022/05/11 04:49:45;;;;;;;18.08;13.02;;;14.60;99.90;;;;;;5015058;28;20391;-55
2022/05/11 04:52:13;;;;;;;18.50;13.10;;;14.60;99.90;;;;;;5015370;28;20029;-55
2022/05/11 04:54:44;;;;;;;23.20;11.93;;;14.60;99.90;;;;;;5027244;28;20049;-50
2022/05/11 04:57:10;;;;;;;18.88;11.98;;;14.60;99.90;;;;;;5034953;28;20032;-54
2022/05/11 04:59:38;;;;;;;15.25;10.70;;;14.60;99.90;;;;;;5034452;28;20430;-52
2022/05/11 05:02:04;;;;;;;17.98;11.20;;;14.60;99.90;;;;;;5035363;28;20029;-53
2022/05/11 05:04:31;;;;;;;16.00;10.23;;;14.70;99.90;;;;;;5016690;28;20080;-50
2022/05/11 05:06:57;;;;;;;20.20;10.70;;;14.70;99.90;;;;;;5033935;28;20033;-52
2022/05/11 05:09:23;;;;;;;20.27;11.43;;;14.70;99.90;;;;;;5034727;28;20036;-53
2022/05/11 05:11:49;;;;;;;19.10;11.43;;;14.80;99.90;;;;;;5033723;28;20026;-50
2022/05/11 05:14:15;;;;;;;15.23;10.88;;;14.80;99.90;;;;;;5028817;28;20025;-51
2022/05/11 05:16:41;;;;;;;17.70;11.25;;;14.80;99.90;;;;;;5034133;28;20025;-50
2022/05/11 05:19:07;;;;;;;19.25;11.23;;;14.90;99.90;;;;;;5034077;28;20041;-53
2022/05/11 05:21:33;;;;;;;15.10;11.18;;;14.90;99.90;;;;;;5035930;28;20025;-52
2022/05/11 05:24:00;;;;;;;16.77;11.35;;;14.90;99.90;;;;;;5036189;28;20039;-54
2022/05/11 05:26:26;;;;;;;13.88;10.90;;;14.90;99.90;;;;;;5035318;28;20033;-51
2022/05/11 05:31:37;;;;;;;15.88;11.68;;;14.90;99.90;;;;;;5035528;28;20390;-55
2022/05/11 05:34:03;;;;;;;14.00;10.80;;;14.90;99.90;;;;;;5035778;28;20034;-56
2022/05/11 05:36:31;;;;;;;14.02;9.93;;;14.90;99.90;;;;;;5037153;28;20423;-54
2022/05/11 05:38:58;;;;;;;15.82;11.40;;;14.90;99.90;;;;;;5038155;28;20075;-51
2022/05/11 05:41:25;;;;;;;16.77;11.35;;;15.00;99.90;;;;;;5038809;28;20045;-54
2022/05/11 05:43:51;;;;;;;19.27;11.63;;;15.00;99.90;;;;;;5037868;28;20482;-54
2022/05/11 05:46:17;;;;;;;15.00;10.93;;;15.10;99.90;;;;;;5026335;28;20034;-55
2022/05/11 05:48:44;;;;;;;14.95;11.10;;;15.10;99.90;;;;;;5024804;28;20017;-55
2022/05/11 05:51:13;;;;;;;15.52;10.57;;;15.10;99.90;;;;;;5023775;28;20391;-55
2022/05/11 05:53:40;;;;;;;16.38;10.52;;;15.20;99.90;;;;;;5022315;28;20033;-56
2022/05/11 05:56:07;;;;;;;14.63;10.00;;;15.20;99.90;;;;;;5025223;28;20049;-55
2022/05/11 05:58:33;;;;;;;14.27;10.07;;;15.20;99.90;;;;;;5033343;28;20029;-55
2022/05/11 06:00:59;;;;;;;15.07;9.57;;;15.20;99.90;;;;;;5034865;28;20025;-55
2022/05/11 06:03:27;;;;;;;15.18;10.23;;;15.30;99.90;;;;;;5034867;28;20453;-56
2022/05/11 06:05:53;;;;;;;17.23;10.10;;;15.30;99.90;;;;;;5033948;28;20018;-52
2022/05/11 06:08:19;;;;;;;15.63;9.02;;;15.40;99.90;;;;;;5047254;22;20156;-52
2022/05/11 06:10:46;;;;;;;13.63;10.45;;;15.50;99.90;;;;;;5034038;28;20079;-52
2022/05/11 06:13:14;;;;;;;17.08;10.00;;;15.60;99.90;;;;;;5033941;28;20029;-54
2022/05/11 06:15:41;;;;;;;15.82;8.85;;;15.70;99.90;;;;;;5034009;28;20079;-53
2022/05/11 06:18:11;;;;;;;13.98;8.18;;;15.90;99.90;;;;;;5033673;28;20022;-52
2022/05/11 06:20:37;;;;;;;12.55;9.02;;;16.00;99.90;;;;;;5033536;28;20033;-53
2022/05/11 06:23:04;;;;;;;19.42;9.32;;;16.20;99.90;;;;;;5034308;28;20033;-55
2022/05/11 06:25:31;;;;;;;11.20;8.02;;;16.40;99.90;;;;;;5015843;28;20033;-54
2022/05/11 06:27:58;;;;;;;13.73;8.63;;;16.50;99.90;;;;;;5033715;28;20386;-52
2022/05/11 06:30:28;;;;;;;11.52;7.82;;;16.50;99.90;;;;;;5033571;28;20021;-53
2022/05/11 06:32:54;;;;;;;15.75;8.32;;;16.50;99.90;;;;;;5016061;28;20364;-55
2022/05/11 06:35:21;;;;;;;17.95;8.02;;;16.60;99.90;;;;;;5033601;28;20096;-52
2022/05/11 06:37:46;;;;;;;19.20;8.88;;;16.70;99.90;;;;;;5033652;28;20021;-54
2022/05/11 06:40:14;;;;;;;9.77;7.95;;;16.70;99.90;;;;;;5033957;28;20064;-54
2022/05/11 06:42:41;;;;;;;13.05;7.43;;;16.70;99.90;;;;;;5034349;28;20025;-53
2022/05/11 06:45:08;;;;;;;11.55;7.65;;;16.70;99.90;;;;;;5034005;28;20032;-56
2022/05/11 06:47:34;;;;;;;11.68;7.28;;;16.70;99.90;;;;;;5033687;28;20390;-55
2022/05/11 06:50:00;;;;;;;9.95;7.28;;;16.60;99.90;;;;;;5033386;28;20029;-55
2022/05/11 06:52:26;;;;;;;11.57;7.43;;;16.60;99.90;;;;;;5034066;28;20029;-52
2022/05/11 07:00:23;;;;;;;9.60;6.85;;;16.70;99.90;;;;;;5033863;28;20091;-56
2022/05/11 07:02:48;;;;;;;8.13;6.28;;;16.70;99.90;;;;;;5033612;28;20414;-53
2022/05/11 07:05:14;;;;;;;10.48;6.97;;;16.70;99.90;;;;;;5033520;28;20148;-53
2022/05/11 07:07:40;;;;;;;10.63;6.32;;;16.80;99.90;;;;;;5033002;28;20037;-53
2022/05/11 07:10:07;;;;;;;10.07;6.70;;;16.80;99.90;;;;;;5033164;28;20025;-52
2022/05/11 07:12:35;;;;;;;9.50;6.55;;;16.90;99.90;;;;;;5033100;28;20025;-55
2022/05/11 07:15:05;;;;;;;12.85;7.03;;;16.90;99.90;;;;;;5033654;28;20109;-56
2022/05/11 07:17:38;;;;;;;8.90;6.13;;;16.90;99.90;;;;;;5032750;28;20029;-52
2022/05/11 07:20:11;;;;;;;9.70;6.32;;;16.90;99.90;;;;;;5015256;28;20479;-54
2022/05/11 07:22:38;;;;;;;9.95;6.43;;;17.00;99.90;;;;;;5015283;28;20021;-54
2022/05/11 07:25:05;;;;;;;11.65;6.07;;;17.10;99.90;;;;;;5033160;28;20573;-52
2022/05/11 07:27:31;;;;;;;10.10;6.93;;;17.10;99.90;;;;;;5032760;28;20091;-53
2022/05/11 07:29:57;;;;;;;8.93;6.55;;;17.30;99.90;;;;;;5015128;28;20029;-54
2022/05/11 07:32:23;;;;;;;12.27;7.78;;;17.40;99.90;;;;;;5033012;28;20026;-53
2022/05/11 07:34:50;;;;;;;10.07;6.32;;;17.40;99.90;;;;;;5033678;28;20029;-55
2022/05/11 07:37:15;;;;;;;10.23;6.68;;;17.50;99.90;;;;;;5033111;28;20026;-52
2022/05/11 07:39:41;;;;;;;13.30;5.80;;;17.70;99.90;;;;;;5033186;28;20494;-53
2022/05/11 07:42:07;;;;;;;10.43;6.20;;;17.80;99.90;;;;;;5035974;28;20440;-57
2022/05/11 07:44:33;;;;;;;10.32;5.60;;;17.90;99.90;;;;;;5039903;28;20037;-56
2022/05/11 07:46:58;;;;;;;11.10;5.93;;;18.00;99.90;;;;;;5039595;28;20029;-55
2022/05/11 07:49:24;;;;;;;8.98;5.97;;;18.00;99.90;;;;;;5039323;28;20108;-56
2022/05/11 07:51:52;;;;;;;8.30;5.93;;;18.20;99.90;;;;;;5038971;28;20018;-55
2022/05/11 07:54:18;;;;;;;9.10;6.25;;;18.20;99.90;;;;;;5040043;28;20421;-56
2022/05/11 08:02:12;;;;;;;7.13;5.38;;;18.20;99.90;;;;;;5034825;28;20040;-57
2022/05/11 08:04:39;;;;;;;7.90;5.90;;;18.20;99.90;;;;;;5034729;28;20025;-57
2022/05/11 08:07:05;;;;;;;8.10;5.85;;;18.20;99.90;;;;;;5034576;28;20104;-56
2022/05/11 08:09:30;;;;;;;9.63;5.90;;;18.20;99.90;;;;;;5024914;28;20462;-55
2022/05/11 08:11:56;;;;;;;11.63;5.88;;;18.30;99.90;;;;;;5016571;28;20041;-57
2022/05/11 08:14:23;;;;;;;10.50;6.28;;;18.40;99.90;;;;;;5016011;28;20026;-55
2022/05/11 08:16:52;;;;;;;11.70;6.38;;;18.40;99.90;;;;;;4998882;28;20022;-55
2022/05/11 08:19:23;;;;;;;11.38;6.78;;;18.40;99.90;;;;;;5016090;28;20092;-56
2022/05/11 08:21:50;;;;;;;9.65;5.95;;;18.60;99.90;;;;;;5016238;28;20088;-55
2022/05/11 08:24:16;;;;;;;10.93;6.32;;;18.60;99.90;;;;;;5015899;28;20037;-54
2022/05/11 08:26:43;;;;;;;11.52;5.95;;;18.80;99.90;;;;;;5016077;28;20434;-53
2022/05/11 08:29:09;;;;;;;7.95;5.75;;;18.80;99.90;;;;;;5016051;28;20025;-52
2022/05/11 08:34:19;;;;;;;8.05;5.95;;;19.00;99.90;;;;;;5016121;28;20036;-52
2022/05/11 08:36:45;;;;;;;8.93;6.10;;;19.00;99.90;;;;;;5015905;28;20026;-52
2022/05/11 08:39:12;;;;;;;8.32;6.00;;;19.00;99.90;;;;;;5015521;28;20510;-53
2022/05/11 08:41:51;;;;;;;9.88;6.53;;;19.20;99.90;;;;;;5015900;28;20109;-51
2022/05/11 08:44:32;;;;;;;10.73;6.10;;;19.10;99.90;;;;;;5016415;28;20030;-53
2022/05/11 08:47:03;;;;;;;12.48;6.32;;;19.20;99.90;;;;;;5015526;28;20033;-53
2022/05/11 08:49:41;;;;;;;8.30;5.70;;;19.40;99.90;;;;;;5016086;28;20113;-53
2022/05/11 08:52:15;;;;;;;8.63;5.72;;;19.50;99.90;;;;;;4998044;28;20340;-53
2022/05/11 08:54:53;;;;;;;12.15;5.65;;;19.70;99.90;;;;;;5015405;28;20112;-52
2022/05/11 08:57:25;;;;;;;6.72;4.57;;;19.90;99.90;;;;;;5015394;28;20057;-54
2022/05/11 08:59:58;;;;;;;10.32;5.45;;;20.00;99.90;;;;;;5015311;28;20032;-55
2022/05/11 09:02:36;;;;;;;14.13;5.78;;;20.20;99.90;;;;;;5015855;28;20030;-52
2022/05/11 09:05:02;;;;;;;9.95;5.03;;;20.30;99.90;;;;;;5016081;28;20029;-52
2022/05/11 09:07:35;;;;;;;6.22;5.03;;;20.20;99.90;;;;;;5014963;28;20042;-54
2022/05/11 09:10:00;;;;;;;11.90;5.88;;;20.20;99.90;;;;;;5015684;28;20022;-52
2022/05/11 09:12:26;;;;;;;11.60;5.50;;;20.40;99.90;;;;;;5014996;28;20033;-52
2022/05/11 09:14:57;;;;;;;10.02;4.40;;;20.40;99.90;;;;;;5015231;28;20029;-53
2022/05/11 09:17:34;;;;;;;8.48;5.40;;;20.40;99.90;;;;;;5015085;28;20042;-53
2022/05/11 09:20:06;;;;;;;9.82;5.57;;;20.50;99.90;;;;;;5014965;28;20047;-51
2022/05/11 09:22:35;;;;;;;8.38;5.15;;;20.40;99.90;;;;;;5026930;28;20038;-51
2022/05/11 09:25:24;;;;;;;12.50;6.03;;;20.40;99.90;;;;;;5028083;28;20030;-53
2022/05/11 09:27:50;;;;;;;9.60;5.70;;;20.50;99.90;;;;;;5034822;28;20064;-54
2022/05/11 09:30:23;;;;;;;12.10;6.32;;;20.50;99.90;;;;;;5034242;28;20025;-52
2022/05/11 09:33:16;;;;;;;7.47;5.30;;;20.60;99.90;;;;;;5035394;28;20032;-53
2022/05/11 09:35:42;;;;;;;7.68;4.95;;;20.70;99.90;;;;;;5034703;28;20152;-56
2022/05/11 09:38:28;;;;;;;6.28;4.95;;;20.60;99.90;;;;;;5034959;28;20021;-54
2022/05/11 09:41:00;;;;;;;11.07;5.15;;;20.50;99.90;;;;;;5033450;28;20029;-57
2022/05/11 09:43:34;;;;;;;8.02;4.75;;;20.50;99.90;;;;;;5034302;28;20052;-54
2022/05/11 09:46:19;;;;;;;9.75;4.50;;;20.50;99.90;;;;;;5030812;28;20076;-52
2022/05/11 09:49:17;;;;;;;9.55;4.57;;;20.60;99.90;;;;;;5023086;28;20018;-54
2022/05/11 09:51:54;;;;;;;7.85;4.40;;;20.70;99.90;;;;;;5014317;28;20024;-51
2022/05/11 09:54:46;;;;;;;5.95;4.38;;;20.80;99.90;;;;;;5014781;28;20026;-52
2022/05/11 09:57:12;;;;;;;7.10;3.53;;;20.70;99.90;;;;;;4996957;28;20025;-56
2022/05/11 09:59:49;;;;;;;8.48;4.40;;;20.90;99.90;;;;;;5008701;28;20034;-54
2022/05/11 10:02:42;;;;;;;7.57;4.15;;;21.10;99.90;;;;;;5032238;28;20479;-56
2022/05/11 10:05:26;;;;;;;8.43;4.78;;;21.40;99.90;;;;;;5015522;28;20026;-53
2022/05/11 10:08:01;;;;;;;9.45;4.70;;;21.40;99.90;;;;;;4997724;28;20034;-55
2022/05/11 10:10:50;;;;;;;8.05;5.03;;;21.50;99.90;;;;;;5014796;28;20093;-55
2022/05/11 10:13:21;;;;;;;10.07;4.80;;;21.30;99.90;;;;;;5014927;28;20022;-54
2022/05/11 10:21:50;;;;;;;9.65;4.25;;;21.30;99.90;;;;;;5034040;28;20083;-56
2022/05/11 10:24:46;;;;;;;10.75;4.20;;;21.40;99.90;;;;;;5033887;28;20390;-53
2022/05/11 10:27:26;;;;;;;6.78;3.70;;;21.40;99.90;;;;;;5033728;28;20029;-52
2022/05/11 10:30:03;;;;;;;15.18;4.05;;;21.50;99.90;;;;;;5033545;28;20052;-52
2022/05/11 10:32:44;;;;;;;9.88;4.03;;;21.70;99.90;;;;;;5033914;28;20148;-56
2022/05/11 10:35:22;;;;;;;7.68;3.92;;;21.90;99.90;;;;;;5030492;28;20376;-53
2022/05/11 10:38:20;;;;;;;9.85;4.40;;;22.10;99.90;;;;;;5020068;28;20433;-53
2022/05/11 10:41:13;;;;;;;5.72;4.18;;;22.20;99.90;;;;;;5034280;28;20104;-55
2022/05/11 10:44:16;;;;;;;9.18;4.25;;;22.20;99.90;;;;;;5033871;28;20113;-57
2022/05/11 10:46:46;;;;;;;9.68;3.83;;;22.20;99.90;;;;;;5015485;28;20026;-57
2022/05/11 10:49:38;;;;;;;10.48;3.92;;;22.30;99.90;;;;;;5033804;28;20076;-55
2022/05/11 10:52:07;;;;;;;7.85;4.30;;;22.30;99.90;;;;;;5015464;28;20025;-54
2022/05/11 10:54:47;;;;;;;9.30;4.38;;;22.30;99.90;;;;;;5033295;28;20033;-56
2022/05/11 10:57:54;;;;;;;7.65;4.10;;;22.40;99.90;;;;;;5033200;28;20036;-54
2022/05/11 11:00:22;;;;;;;12.30;4.18;;;22.30;99.90;;;;;;4969712;28;20045;-52
2022/05/11 11:02:59;;;;;;;8.10;3.60;;;22.40;99.90;;;;;;5033624;28;20021;-55
2022/05/11 11:09:01;;;;;;;7.70;4.25;;;22.50;99.90;;;;;;5026329;28;20099;-55
2022/05/11 11:11:50;;;;;;;9.90;4.82;;;22.60;99.90;;;;;;5021642;28;20029;-53
2022/05/11 11:14:25;;;;;;;9.90;4.75;;;22.50;99.90;;;;;;5024941;28;20040;-52
2022/05/11 11:16:51;;;;;;;10.57;4.78;;;22.40;99.90;;;;;;5018121;28;20045;-53
2022/05/11 11:19:17;;;;;;;10.57;4.82;;;22.30;99.90;;;;;;5016915;28;20373;-52
2022/05/11 11:21:44;;;;;;;6.78;4.10;;;22.00;99.90;;;;;;5017639;28;20030;-55
2022/05/11 11:24:22;;;;;;;8.02;4.35;;;21.90;99.90;;;;;;5021938;28;20033;-52
2022/05/11 11:27:02;;;;;;;5.60;3.78;;;22.00;99.90;;;;;;5028457;28;20491;-52
2022/05/11 11:29:36;;;;;;;10.15;4.95;;;22.20;99.90;;;;;;5017637;28;20096;-54
2022/05/11 11:32:11;;;;;;;11.55;4.40;;;22.30;99.90;;;;;;5017245;28;20021;-51
2022/05/11 11:34:46;;;;;;;6.65;3.35;;;22.40;99.90;;;;;;5014446;28;20029;-54
2022/05/11 11:37:29;;;;;;;7.75;4.47;;;22.60;99.90;;;;;;5030034;28;20030;-52
2022/05/11 11:40:13;;;;;;;11.40;3.83;;;22.80;99.90;;;;;;5016934;28;20025;-51
2022/05/11 11:42:43;;;;;;;8.07;3.75;;;22.80;99.90;;;;;;5021170;28;20495;-55
2022/05/11 11:45:30;;;;;;;5.22;3.30;;;22.70;99.90;;;;;;5023084;28;20085;-52
2022/05/11 11:48:21;;;;;;;5.65;3.42;;;22.80;99.90;;;;;;4977049;28;20046;-54
2022/05/11 11:50:58;;;;;;;5.88;3.88;;;22.80;99.90;;;;;;5016843;28;20030;-54
2022/05/11 11:53:52;;;;;;;6.40;4.13;;;23.10;99.90;;;;;;4999506;28;20109;-55
2022/05/11 11:56:24;;;;;;;11.10;3.70;;;23.30;99.90;;;;;;5024258;28;20060;-55
2022/05/11 11:59:11;;;;;;;9.98;4.82;;;23.30;99.90;;;;;;5023984;28;20037;-55
2022/05/11 12:01:42;;;;;;;9.07;3.70;;;23.30;99.90;;;;;;5028979;28;20060;-55
2022/05/11 12:04:20;;;;;;;15.88;4.03;;;23.30;99.90;;;;;;5027020;28;20026;-55
2022/05/11 12:15:33;;;;;;;4.03;3.05;;;23.80;99.20;;;;;;5005028;28;20024;-54
2022/05/11 12:18:00;;;;;;;9.57;3.55;;;24.00;98.30;;;;;;5005490;28;20024;-50
2022/05/11 12:20:39;;;;;;;9.10;3.70;;;24.20;97.00;;;;;;4986938;28;20085;-50
2022/05/11 12:23:17;;;;;;;6.32;3.45;;;24.20;95.80;;;;;;5006020;28;20022;-49
2022/05/11 12:25:52;;;;;;;4.28;3.08;;;24.30;95.40;;;;;;5006028;28;20022;-51
2022/05/11 12:28:26;;;;;;;5.10;2.90;;;24.20;96.20;;;;;;5008843;28;20520;-52
2022/05/11 12:30:52;;;;;;;10.43;3.47;;;23.90;95.90;;;;;;5010555;28;20038;-50
2022/05/11 12:33:28;;;;;;;4.78;3.13;;;23.70;95.70;;;;;;5006747;28;20076;-51
2022/05/11 12:36:31;;;;;;;10.65;3.30;;;23.70;96.70;;;;;;5014433;28;20033;-52
2022/05/11 12:38:56;;;;;;;10.05;3.60;;;23.80;95.70;;;;;;5007555;28;20037;-50
2022/05/11 12:41:22;;;;;;;3.80;2.88;;;23.90;95.50;;;;;;5010138;28;20026;-49
2022/05/11 12:44:12;;;;;;;4.43;3.05;;;24.00;94.50;;;;;;5004191;28;20483;-49
2022/05/11 12:46:41;;;;;;;4.32;2.72;;;24.10;94.50;;;;;;5004154;28;20030;-54
2022/05/11 12:49:14;;;;;;;5.20;3.22;;;24.00;93.40;;;;;;5015478;28;20104;-55
2022/05/11 12:51:42;;;;;;;6.70;3.08;;;23.90;94.10;;;;;;5008836;28;20395;-52
2022/05/11 12:54:18;;;;;;;6.63;3.40;;;24.00;93.80;;;;;;5009534;28;20440;-54
2022/05/11 12:56:44;;;;;;;7.18;3.30;;;24.10;93.80;;;;;;5010285;28;20384;-49
2022/05/11 12:59:23;;;;;;;4.53;2.45;;;24.20;93.80;;;;;;5008009;28;20036;-53
2022/05/11 13:01:49;;;;;;;6.82;2.67;;;24.40;92.90;;;;;;4988770;28;20111;-52
2022/05/11 13:04:23;;;;;;;8.13;2.65;;;24.40;92.80;;;;;;5013601;28;20061;-54
2022/05/11 13:06:55;;;;;;;8.70;2.50;;;24.40;91.60;;;;;;5008570;28;20030;-52
2022/05/11 13:09:32;;;;;;;6.78;2.50;;;24.20;90.20;;;;;;5010171;28;20040;-50
2022/05/11 13:11:59;;;;;;;5.68;2.50;;;24.10;90.40;;;;;;5009513;28;20105;-53
2022/05/11 13:14:36;;;;;;;8.43;1.98;;;24.10;90.40;;;;;;5009964;28;20117;-55
2022/05/11 13:17:07;;;;;;;5.95;1.92;;;24.20;90.50;;;;;;5007341;28;20080;-53
2022/05/11 13:19:35;;;;;;;5.43;2.40;;;24.20;88.40;;;;;;5007783;28;20394;-53
2022/05/11 13:22:13;;;;;;;3.40;2.05;;;24.20;88.00;;;;;;4994719;28;20415;-54
2022/05/11 13:24:40;;;;;;;6.38;2.20;;;24.20;89.00;;;;;;5002862;28;20061;-50
2022/05/11 13:27:41;;;;;;;8.70;2.50;;;24.20;89.50;;;;;;5005028;28;20030;-49
2022/05/11 13:30:16;;;;;;;16.25;5.30;;;24.20;88.30;;;;;;4985402;28;20503;-53
2022/05/11 13:32:46;;;;;;;9.27;4.13;;;24.00;89.70;;;;;;5002324;28;20034;-54
2022/05/11 13:35:21;;;;;;;7.70;2.50;;;24.00;88.50;;;;;;5003456;28;20034;-51
2022/05/11 13:38:13;;;;;;;6.32;2.30;;;24.10;87.70;;;;;;4997717;28;20033;-54